^^
Station Historical Data
Daily Summary for February 21, 2018 Units:  Both    English   Metric
« Previous Day
Next Day »
Daily Weekly Monthly Yearly Custom
  High: Low: Average:
Temperature: TemperatureF °F /  -17.8 °C 66.2 °F /  19 °C 80.1 °F /  26.7 °C
Dew Point: DewpointF °F /  -17.8 °C 23.9 °F /  -4.5 °C 40 °F /  4.4 °C
Humidity: Humidity% 14% 25%
Wind Speed: WindSpeedMPHmph /  0km/h - 2.9mph /  4.7km/h
Wind Gust: WindSpeedGustMPHmph /  0km/h - -
Wind- - SE
Pressure: PressureIn in /  0 hPa 29.51 in /  999.2 hPa -
Precipitation: 0.00 in /  0 mm    
Historical Graphs
 
 
Tabular Data for February 21, 2018
Time Temperature Dew Point Pressure Wind Wind Speed Wind Gust Humidity Rainfall Rate (Hourly) solar Conditions
TemperatureF °F /  -17.8 °C DewpointF °F /  -17.8 °C PressureInin /  0hPa Calm     Humidity% HourlyPrecipInin /  0mm SolarRadiationWatts/m^2 W/m2 Conditions
00:05 76.8 °F /  24.9 °C 24.1 °F /  -4.4 °C 29.70in /  1005.6hPa SSE 6.9mph /  11.1km/h 9.0mph /  14.5km/h 14% 0.00in /  0mm 0.0 W/m2
00:10 76.8 °F /  24.9 °C 24.1 °F /  -4.4 °C 29.70in /  1005.6hPa SE 4.9mph /  7.9km/h 8.0mph /  12.9km/h 14% 0.00in /  0mm 0.0 W/m2
00:15 76.8 °F /  24.9 °C 24.1 °F /  -4.4 °C 29.70in /  1005.6hPa East 4.9mph /  7.9km/h 7.0mph /  11.3km/h 14% 0.00in /  0mm 0.0 W/m2
00:20 76.8 °F /  24.9 °C 24.1 °F /  -4.4 °C 29.70in /  1005.6hPa SE 6.0mph /  9.7km/h 9.0mph /  14.5km/h 14% 0.00in /  0mm 0.0 W/m2
00:25 76.6 °F /  24.8 °C 23.9 °F /  -4.5 °C 29.70in /  1005.6hPa SE 2.9mph /  4.7km/h 7.0mph /  11.3km/h 14% 0.00in /  0mm 0.0 W/m2
00:30 76.5 °F /  24.7 °C 25.3 °F /  -3.7 °C 29.71in /  1006hPa SE 4.0mph /  6.4km/h 7.0mph /  11.3km/h 15% 0.00in /  0mm 0.0 W/m2
00:35 76.3 °F /  24.6 °C 25.2 °F /  -3.8 °C 29.70in /  1005.6hPa South 6.0mph /  9.7km/h 10.0mph /  16.1km/h 15% 0.00in /  0mm 0.0 W/m2
00:40 76.1 °F /  24.5 °C 25.2 °F /  -3.8 °C 29.70in /  1005.6hPa South 0.9mph /  1.4km/h 8.0mph /  12.9km/h 15% 0.00in /  0mm 0.0 W/m2
00:45 75.9 °F /  24.4 °C 25.0 °F /  -3.9 °C 29.70in /  1005.6hPa SE 6.0mph /  9.7km/h 9.0mph /  14.5km/h 15% 0.00in /  0mm 0.0 W/m2
00:51 75.7 °F /  24.3 °C 24.8 °F /  -4 °C 29.70in /  1005.6hPa SW 2.9mph /  4.7km/h 5.0mph /  8km/h 15% 0.00in /  0mm 0.0 W/m2
00:56 75.7 °F /  24.3 °C 26.4 °F /  -3.1 °C 29.70in /  1005.6hPa SSE 4.0mph /  6.4km/h 7.0mph /  11.3km/h 16% 0.00in /  0mm 0.0 W/m2
01:01 75.7 °F /  24.3 °C 26.4 °F /  -3.1 °C 29.70in /  1005.6hPa SE 8.9mph /  14.3km/h 9.0mph /  14.5km/h 16% 0.00in /  0mm 0.0 W/m2
01:06 75.7 °F /  24.3 °C 26.4 °F /  -3.1 °C 29.70in /  1005.6hPa Calm   8.0mph /  12.9km/h 16% 0.00in /  0mm 0.0 W/m2
01:11 75.9 °F /  24.4 °C 26.4 °F /  -3.1 °C 29.69in /  1005.3hPa SSE 4.9mph /  7.9km/h 10.0mph /  16.1km/h 16% 0.00in /  0mm 0.0 W/m2
01:16 75.9 °F /  24.4 °C 26.4 °F /  -3.1 °C 29.69in /  1005.3hPa SE 4.0mph /  6.4km/h 9.0mph /  14.5km/h 16% 0.00in /  0mm 0.0 W/m2
01:21 76.1 °F /  24.5 °C 26.6 °F /  -3 °C 29.69in /  1005.3hPa South 0.9mph /  1.4km/h 10.0mph /  16.1km/h 16% 0.00in /  0mm 0.0 W/m2
01:27 76.3 °F /  24.6 °C 26.8 °F /  -2.9 °C 29.69in /  1005.3hPa SSE 2.0mph /  3.2km/h 9.0mph /  14.5km/h 16% 0.00in /  0mm 0.0 W/m2
01:32 76.5 °F /  24.7 °C 27.0 °F /  -2.8 °C 29.69in /  1005.3hPa SE 8.1mph /  13km/h 12.0mph /  19.3km/h 16% 0.00in /  0mm 0.0 W/m2
01:37 76.5 °F /  24.7 °C 27.0 °F /  -2.8 °C 29.69in /  1005.3hPa SE 4.9mph /  7.9km/h 17.0mph /  27.4km/h 16% 0.00in /  0mm 0.0 W/m2
01:42 76.5 °F /  24.7 °C 27.0 °F /  -2.8 °C 29.68in /  1005hPa SSW 4.9mph /  7.9km/h 15.0mph /  24.1km/h 16% 0.00in /  0mm 0.0 W/m2
01:47 76.5 °F /  24.7 °C 28.4 °F /  -2 °C 29.68in /  1005hPa SE 6.9mph /  11.1km/h 12.0mph /  19.3km/h 17% 0.00in /  0mm 0.0 W/m2
01:52 76.3 °F /  24.6 °C 28.2 °F /  -2.1 °C 29.68in /  1005hPa SSE 6.9mph /  11.1km/h 9.0mph /  14.5km/h 17% 0.00in /  0mm 0.0 W/m2
01:57 75.9 °F /  24.4 °C 28.0 °F /  -2.2 °C 29.68in /  1005hPa Calm   13.0mph /  20.9km/h 17% 0.00in /  0mm 0.0 W/m2
02:02 75.7 °F /  24.3 °C 27.9 °F /  -2.3 °C 29.68in /  1005hPa SSE 10.1mph /  16.3km/h 11.0mph /  17.7km/h 17% 0.00in /  0mm 0.0 W/m2
02:07 75.6 °F /  24.2 °C 29.1 °F /  -1.6 °C 29.68in /  1005hPa SE 4.9mph /  7.9km/h 13.0mph /  20.9km/h 18% 0.00in /  0mm 0.0 W/m2
02:13 75.4 °F /  24.1 °C 28.9 °F /  -1.7 °C 29.68in /  1005hPa ESE 6.9mph /  11.1km/h 12.0mph /  19.3km/h 18% 0.00in /  0mm 0.0 W/m2
02:18 75.0 °F /  23.9 °C 28.6 °F /  -1.9 °C 29.68in /  1005hPa SSE 4.9mph /  7.9km/h 15.0mph /  24.1km/h 18% 0.00in /  0mm 0.0 W/m2
02:23 75.0 °F /  23.9 °C 30.0 °F /  -1.1 °C 29.68in /  1005hPa South 6.0mph /  9.7km/h 12.0mph /  19.3km/h 19% 0.00in /  0mm 0.0 W/m2
02:28 74.8 °F /  23.8 °C 29.8 °F /  -1.2 °C 29.67in /  1004.6hPa Calm   10.0mph /  16.1km/h 19% 0.00in /  0mm 0.0 W/m2
02:33 74.8 °F /  23.8 °C 29.8 °F /  -1.2 °C 29.67in /  1004.6hPa South 2.9mph /  4.7km/h 8.0mph /  12.9km/h 19% 0.00in /  0mm 0.0 W/m2
02:38 74.7 °F /  23.7 °C 29.7 °F /  -1.3 °C 29.67in /  1004.6hPa SE 0.9mph /  1.4km/h 7.0mph /  11.3km/h 19% 0.00in /  0mm 0.0 W/m2
02:43 74.5 °F /  23.6 °C 29.5 °F /  -1.4 °C 29.67in /  1004.6hPa SSW 4.9mph /  7.9km/h 10.0mph /  16.1km/h 19% 0.00in /  0mm 0.0 W/m2
02:49 74.3 °F /  23.5 °C 29.3 °F /  -1.5 °C 29.67in /  1004.6hPa WSW 2.0mph /  3.2km/h 8.0mph /  12.9km/h 19% 0.00in /  0mm 0.0 W/m2
02:54 74.1 °F /  23.4 °C 30.6 °F /  -0.8 °C 29.67in /  1004.6hPa SE 0.9mph /  1.4km/h 9.0mph /  14.5km/h 20% 0.00in /  0mm 0.0 W/m2
02:59 73.9 °F /  23.3 °C 30.4 °F /  -0.9 °C 29.67in /  1004.6hPa SE 2.9mph /  4.7km/h 9.0mph /  14.5km/h 20% 0.00in /  0mm 0.0 W/m2
03:04 73.8 °F /  23.2 °C 30.2 °F /  -1 °C 29.67in /  1004.6hPa SSE 6.0mph /  9.7km/h 9.0mph /  14.5km/h 20% 0.00in /  0mm 0.0 W/m2
03:09 73.8 °F /  23.2 °C 30.2 °F /  -1 °C 29.67in /  1004.6hPa Calm   8.0mph /  12.9km/h 20% 0.00in /  0mm 0.0 W/m2
03:14 73.6 °F /  23.1 °C 30.0 °F /  -1.1 °C 29.67in /  1004.6hPa SSW 2.0mph /  3.2km/h 6.0mph /  9.7km/h 20% 0.00in /  0mm 0.0 W/m2
03:19 73.4 °F /  23 °C 29.8 °F /  -1.2 °C 29.67in /  1004.6hPa SE 2.9mph /  4.7km/h 8.0mph /  12.9km/h 20% 0.00in /  0mm 0.0 W/m2
03:24 73.2 °F /  22.9 °C 30.9 °F /  -0.6 °C 29.67in /  1004.6hPa SSE 2.9mph /  4.7km/h 7.0mph /  11.3km/h 21% 0.00in /  0mm 0.0 W/m2
03:29 73.0 °F /  22.8 °C 30.7 °F /  -0.7 °C 29.67in /  1004.6hPa Calm   9.0mph /  14.5km/h 21% 0.00in /  0mm 0.0 W/m2
03:34 73.0 °F /  22.8 °C 30.7 °F /  -0.7 °C 29.67in /  1004.6hPa Calm   9.0mph /  14.5km/h 21% 0.00in /  0mm 0.0 W/m2
03:39 72.9 °F /  22.7 °C 30.6 °F /  -0.8 °C 29.67in /  1004.6hPa South 2.9mph /  4.7km/h 5.0mph /  8km/h 21% 0.00in /  0mm 0.0 W/m2
03:45 72.7 °F /  22.6 °C 30.6 °F /  -0.8 °C 29.67in /  1004.6hPa Calm   1.0mph /  1.6km/h 21% 0.00in /  0mm 0.0 W/m2
03:50 72.3 °F /  22.4 °C 31.3 °F /  -0.4 °C 29.67in /  1004.6hPa SE 2.9mph /  4.7km/h 3.0mph /  4.8km/h 22% 0.00in /  0mm 0.0 W/m2
03:55 72.0 °F /  22.2 °C 31.1 °F /  -0.5 °C 29.67in /  1004.6hPa Calm   1.0mph /  1.6km/h 22% 0.00in /  0mm 0.0 W/m2
04:00 71.6 °F /  22 °C 31.8 °F /  -0.1 °C 29.67in /  1004.6hPa Calm   2.0mph /  3.2km/h 23% 0.00in /  0mm 0.0 W/m2
04:05 71.2 °F /  21.8 °C 31.5 °F /  -0.3 °C 29.67in /  1004.6hPa SSW 2.0mph /  3.2km/h 2.0mph /  3.2km/h 23% 0.00in /  0mm 0.0 W/m2
04:10 71.1 °F /  21.7 °C 31.5 °F /  -0.3 °C 29.67in /  1004.6hPa Calm   2.0mph /  3.2km/h 23% 0.00in /  0mm 0.0 W/m2
04:15 70.9 °F /  21.6 °C 31.3 °F /  -0.4 °C 29.67in /  1004.6hPa SSW 0.9mph /  1.4km/h 4.0mph /  6.4km/h 23% 0.00in /  0mm 0.0 W/m2
04:20 70.5 °F /  21.4 °C 32.0 °F /  0 °C 29.67in /  1004.6hPa South 2.9mph /  4.7km/h 5.0mph /  8km/h 24% 0.00in /  0mm 0.0 W/m2
04:26 70.2 °F /  21.2 °C 31.6 °F /  -0.2 °C 29.66in /  1004.3hPa Calm   2.0mph /  3.2km/h 24% 0.00in /  0mm 0.0 W/m2
04:31 70.2 °F /  21.2 °C 31.6 °F /  -0.2 °C 29.66in /  1004.3hPa SSW 2.9mph /  4.7km/h 6.0mph /  9.7km/h 24% 0.00in /  0mm 0.0 W/m2
04:36 70.0 °F /  21.1 °C 32.5 °F /  0.3 °C 29.66in /  1004.3hPa Calm   1.0mph /  1.6km/h 25% 0.00in /  0mm 0.0 W/m2
04:42 70.0 °F /  21.1 °C 32.5 °F /  0.3 °C 29.66in /  1004.3hPa SSW 2.0mph /  3.2km/h 5.0mph /  8km/h 25% 0.00in /  0mm 0.0 W/m2
04:47 70.2 °F /  21.2 °C 32.7 °F /  0.4 °C 29.65in /  1003.9hPa SSW 4.0mph /  6.4km/h 8.0mph /  12.9km/h 25% 0.00in /  0mm 0.0 W/m2
04:52 70.2 °F /  21.2 °C 32.7 °F /  0.4 °C 29.65in /  1003.9hPa SSE 4.0mph /  6.4km/h 5.0mph /  8km/h 25% 0.00in /  0mm 0.0 W/m2
04:57 70.2 °F /  21.2 °C 32.7 °F /  0.4 °C 29.65in /  1003.9hPa Calm   5.0mph /  8km/h 25% 0.00in /  0mm 0.0 W/m2
05:02 70.2 °F /  21.2 °C 32.7 °F /  0.4 °C 29.65in /  1003.9hPa Calm   3.0mph /  4.8km/h 25% 0.00in /  0mm 0.0 W/m2
05:07 70.3 °F /  21.3 °C 32.9 °F /  0.5 °C 29.65in /  1003.9hPa SE 2.9mph /  4.7km/h 3.0mph /  4.8km/h 25% 0.00in /  0mm 0.0 W/m2
05:12 70.3 °F /  21.3 °C 32.9 °F /  0.5 °C 29.65in /  1003.9hPa SSE 2.9mph /  4.7km/h 8.0mph /  12.9km/h 25% 0.00in /  0mm 0.0 W/m2
05:17 70.3 °F /  21.3 °C 32.9 °F /  0.5 °C 29.65in /  1003.9hPa Calm   5.0mph /  8km/h 25% 0.00in /  0mm 0.0 W/m2
05:23 70.5 °F /  21.4 °C 33.1 °F /  0.6 °C 29.65in /  1003.9hPa Calm   5.0mph /  8km/h 25% 0.00in /  0mm 0.0 W/m2
05:29 70.3 °F /  21.3 °C 32.9 °F /  0.5 °C 29.65in /  1003.9hPa SE 4.0mph /  6.4km/h 6.0mph /  9.7km/h 25% 0.00in /  0mm 0.0 W/m2
05:34 70.3 °F /  21.3 °C 32.9 °F /  0.5 °C 29.65in /  1003.9hPa SSE 4.9mph /  7.9km/h 7.0mph /  11.3km/h 25% 0.00in /  0mm 0.0 W/m2
05:40 70.2 °F /  21.2 °C 32.7 °F /  0.4 °C 29.65in /  1003.9hPa SW 0.9mph /  1.4km/h 7.0mph /  11.3km/h 25% 0.00in /  0mm 0.0 W/m2
05:45 70.2 °F /  21.2 °C 32.7 °F /  0.4 °C 29.65in /  1003.9hPa Calm   7.0mph /  11.3km/h 25% 0.00in /  0mm 0.0 W/m2
05:50 70.2 °F /  21.2 °C 32.7 °F /  0.4 °C 29.65in /  1003.9hPa SE 2.9mph /  4.7km/h 4.0mph /  6.4km/h 25% 0.00in /  0mm 0.0 W/m2
05:56 70.0 °F /  21.1 °C 33.4 °F /  0.8 °C 29.66in /  1004.3hPa SSE 4.0mph /  6.4km/h 4.0mph /  6.4km/h 26% 0.00in /  0mm 0.0 W/m2
06:01 70.0 °F /  21.1 °C 33.4 °F /  0.8 °C 29.66in /  1004.3hPa SE 2.0mph /  3.2km/h 3.0mph /  4.8km/h 26% 0.00in /  0mm 0.0 W/m2
06:06 69.8 °F /  21 °C 34.3 °F /  1.3 °C 29.66in /  1004.3hPa SE 0.9mph /  1.4km/h 3.0mph /  4.8km/h 27% 0.00in /  0mm 0.0 W/m2
06:11 69.4 °F /  20.8 °C 34.0 °F /  1.1 °C 29.66in /  1004.3hPa Calm   2.0mph /  3.2km/h 27% 0.00in /  0mm 0.0 W/m2
06:16 69.3 °F /  20.7 °C 33.8 °F /  1 °C 29.66in /  1004.3hPa Calm   3.0mph /  4.8km/h 27% 0.00in /  0mm 0.0 W/m2
06:21 69.1 °F /  20.6 °C 33.6 °F /  0.9 °C 29.66in /  1004.3hPa Calm   1.0mph /  1.6km/h 27% 0.00in /  0mm 0.0 W/m2
06:26 68.7 °F /  20.4 °C 33.4 °F /  0.8 °C 29.67in /  1004.6hPa Calm   1.0mph /  1.6km/h 27% 0.00in /  0mm 0.0 W/m2
06:31 68.5 °F /  20.3 °C 34.2 °F /  1.2 °C 29.67in /  1004.6hPa Calm     28% 0.00in /  0mm 0.0 W/m2
06:37 68.4 °F /  20.2 °C 34.9 °F /  1.6 °C 29.67in /  1004.6hPa Calm     29% 0.00in /  0mm 0.0 W/m2
06:42 68.0 °F /  20 °C 34.5 °F /  1.4 °C 29.67in /  1004.6hPa Calm     29% 0.00in /  0mm 0.0 W/m2
06:47 67.6 °F /  19.8 °C 34.2 °F /  1.2 °C 29.67in /  1004.6hPa Calm   1.0mph /  1.6km/h 29% 0.00in /  0mm 0.0 W/m2
06:53 67.3 °F /  19.6 °C 34.7 °F /  1.5 °C 29.67in /  1004.6hPa Calm   1.0mph /  1.6km/h 30% 0.00in /  0mm 7.0 W/m2
06:58 67.1 °F /  19.5 °C 35.4 °F /  1.9 °C 29.67in /  1004.6hPa Calm     31% 0.00in /  0mm 9.0 W/m2
07:03 66.7 °F /  19.3 °C 35.1 °F /  1.7 °C 29.67in /  1004.6hPa Calm     31% 0.00in /  0mm 11.0 W/m2
07:08 66.6 °F /  19.2 °C 36.5 °F /  2.5 °C 29.67in /  1004.6hPa ENE 0.9mph /  1.4km/h 2.0mph /  3.2km/h 33% 0.00in /  0mm 14.0 W/m2
07:13 66.4 °F /  19.1 °C 37.2 °F /  2.9 °C 29.67in /  1004.6hPa Calm   1.0mph /  1.6km/h 34% 0.00in /  0mm 16.0 W/m2
07:18 66.4 °F /  19.1 °C 38.7 °F /  3.7 °C 29.67in /  1004.6hPa Calm   2.0mph /  3.2km/h 36% 0.00in /  0mm 18.0 W/m2
07:23 66.2 °F /  19 °C 37.8 °F /  3.2 °C 29.67in /  1004.6hPa East 0.9mph /  1.4km/h 2.0mph /  3.2km/h 35% 0.00in /  0mm 19.0 W/m2
07:28 66.4 °F /  19.1 °C 37.2 °F /  2.9 °C 29.68in /  1005hPa South 0.9mph /  1.4km/h 4.0mph /  6.4km/h 34% 0.00in /  0mm 21.0 W/m2
07:33 66.6 °F /  19.2 °C 38.1 °F /  3.4 °C 29.68in /  1005hPa SE 0.9mph /  1.4km/h 1.0mph /  1.6km/h 35% 0.00in /  0mm 21.0 W/m2
07:38 66.6 °F /  19.2 °C 38.8 °F /  3.8 °C 29.68in /  1005hPa Calm   3.0mph /  4.8km/h 36% 0.00in /  0mm 23.0 W/m2
07:43 66.7 °F /  19.3 °C 38.3 °F /  3.5 °C 29.69in /  1005.3hPa Calm   2.0mph /  3.2km/h 35% 0.00in /  0mm 25.0 W/m2
07:48 67.3 °F /  19.6 °C 38.7 °F /  3.7 °C 29.69in /  1005.3hPa ESE 2.9mph /  4.7km/h 4.0mph /  6.4km/h 35% 0.00in /  0mm 26.0 W/m2
07:53 67.5 °F /  19.7 °C 38.8 °F /  3.8 °C 29.69in /  1005.3hPa Calm   2.0mph /  3.2km/h 35% 0.00in /  0mm 28.0 W/m2
07:59 67.8 °F /  19.9 °C 39.2 °F /  4 °C 29.70in /  1005.6hPa SE 0.9mph /  1.4km/h 1.0mph /  1.6km/h 35% 0.00in /  0mm 30.0 W/m2
08:04 68.4 °F /  20.2 °C 38.8 °F /  3.8 °C 29.70in /  1005.6hPa Calm   1.0mph /  1.6km/h 34% 0.00in /  0mm 30.0 W/m2
08:09 68.5 °F /  20.3 °C 39.0 °F /  3.9 °C 29.70in /  1005.6hPa Calm   2.0mph /  3.2km/h 34% 0.00in /  0mm 42.0 W/m2
08:14 69.1 °F /  20.6 °C 39.6 °F /  4.2 °C 29.70in /  1005.6hPa Calm     34% 0.00in /  0mm 33.0 W/m2
08:19 69.4 °F /  20.8 °C 39.0 °F /  3.9 °C 29.70in /  1005.6hPa ESE 0.9mph /  1.4km/h 1.0mph /  1.6km/h 33% 0.00in /  0mm 33.0 W/m2
08:24 70.0 °F /  21.1 °C 40.3 °F /  4.6 °C 29.70in /  1005.6hPa Calm     34% 0.00in /  0mm 33.0 W/m2
08:29 70.3 °F /  21.3 °C 40.6 °F /  4.8 °C 29.70in /  1005.6hPa Calm   1.0mph /  1.6km/h 34% 0.00in /  0mm 35.0 W/m2
08:34 70.9 °F /  21.6 °C 43.3 °F /  6.3 °C 29.70in /  1005.6hPa East 0.9mph /  1.4km/h 2.0mph /  3.2km/h 37% 0.00in /  0mm 37.0 W/m2
08:40 72.0 °F /  22.2 °C 46.4 °F /  8 °C 29.70in /  1005.6hPa NE 0.9mph /  1.4km/h 3.0mph /  4.8km/h 40% 0.00in /  0mm 39.0 W/m2
08:45 72.7 °F /  22.6 °C 46.2 °F /  7.9 °C 29.70in /  1005.6hPa NE 0.9mph /  1.4km/h 2.0mph /  3.2km/h 39% 0.00in /  0mm 40.0 W/m2
08:50 73.4 °F /  23 °C 48.9 °F /  9.4 °C 29.69in /  1005.3hPa North 0.9mph /  1.4km/h 2.0mph /  3.2km/h 42% 0.00in /  0mm 49.0 W/m2
08:55 73.8 °F /  23.2 °C 50.5 °F /  10.3 °C 29.69in /  1005.3hPa Calm   2.0mph /  3.2km/h 44% 0.00in /  0mm 489.0 W/m2
09:00 74.3 °F /  23.5 °C 50.4 °F /  10.2 °C 29.69in /  1005.3hPa Calm   5.0mph /  8km/h 43% 0.00in /  0mm 504.0 W/m2
09:05 74.8 °F /  23.8 °C 52.2 °F /  11.2 °C 29.69in /  1005.3hPa East 4.0mph /  6.4km/h 4.0mph /  6.4km/h 45% 0.00in /  0mm 517.0 W/m2
09:10 75.6 °F /  24.2 °C 54.0 °F /  12.2 °C 29.69in /  1005.3hPa NNE 2.9mph /  4.7km/h 7.0mph /  11.3km/h 47% 0.00in /  0mm 536.0 W/m2
09:15 76.6 °F /  24.8 °C 52.5 °F /  11.4 °C 29.69in /  1005.3hPa NNE 0.9mph /  1.4km/h 1.0mph /  1.6km/h 43% 0.00in /  0mm 555.0 W/m2
09:21 77.7 °F /  25.4 °C 53.4 °F /  11.9 °C 29.68in /  1005hPa NNE 0.9mph /  1.4km/h 5.0mph /  8km/h 43% 0.00in /  0mm 580.0 W/m2
09:26 78.6 °F /  25.9 °C 53.6 °F /  12 °C 29.69in /  1005.3hPa East 2.9mph /  4.7km/h 7.0mph /  11.3km/h 42% 0.00in /  0mm 596.0 W/m2
09:31 79.5 °F /  26.4 °C 54.5 °F /  12.5 °C 29.68in /  1005hPa East 6.9mph /  11.1km/h 8.0mph /  12.9km/h 42% 0.00in /  0mm 610.0 W/m2
09:37 80.1 °F /  26.7 °C 54.3 °F /  12.4 °C 29.68in /  1005hPa NNE 4.0mph /  6.4km/h 4.0mph /  6.4km/h 41% 0.00in /  0mm 640.0 W/m2
09:42 80.4 °F /  26.9 °C 54.0 °F /  12.2 °C 29.68in /  1005hPa ENE 0.9mph /  1.4km/h 6.0mph /  9.7km/h 40% 0.00in /  0mm 657.0 W/m2
09:47 81.0 °F /  27.2 °C 53.6 °F /  12 °C 29.68in /  1005hPa ESE 2.0mph /  3.2km/h 7.0mph /  11.3km/h 39% 0.00in /  0mm 673.0 W/m2
09:52 81.1 °F /  27.3 °C 53.8 °F /  12.1 °C 29.67in /  1004.6hPa ENE 0.9mph /  1.4km/h 8.0mph /  12.9km/h 39% 0.00in /  0mm 691.0 W/m2
09:57 81.7 °F /  27.6 °C 54.3 °F /  12.4 °C 29.68in /  1005hPa SE 2.9mph /  4.7km/h 6.0mph /  9.7km/h 39% 0.00in /  0mm 700.0 W/m2
10:02 82.0 °F /  27.8 °C 54.0 °F /  12.2 °C 29.68in /  1005hPa ENE 4.9mph /  7.9km/h 10.0mph /  16.1km/h 38% 0.00in /  0mm 694.0 W/m2
10:07 82.0 °F /  27.8 °C 54.0 °F /  12.2 °C 29.68in /  1005hPa ENE 2.0mph /  3.2km/h 5.0mph /  8km/h 38% 0.00in /  0mm 737.0 W/m2
10:12 82.4 °F /  28 °C 53.6 °F /  12 °C 29.67in /  1004.6hPa NNW 4.0mph /  6.4km/h 18.0mph /  29km/h 37% 0.00in /  0mm 756.0 W/m2
10:17 82.6 °F /  28.1 °C 53.6 °F /  12 °C 29.67in /  1004.6hPa NE 4.0mph /  6.4km/h 10.0mph /  16.1km/h 37% 0.00in /  0mm 775.0 W/m2
10:22 82.9 °F /  28.3 °C 53.2 °F /  11.8 °C 29.67in /  1004.6hPa ENE 4.9mph /  7.9km/h 8.0mph /  12.9km/h 36% 0.00in /  0mm 809.0 W/m2
10:27 83.1 °F /  28.4 °C 52.7 °F /  11.5 °C 29.67in /  1004.6hPa ENE 11.0mph /  17.7km/h 11.0mph /  17.7km/h 35% 0.00in /  0mm 789.0 W/m2
10:32 83.3 °F /  28.5 °C 52.9 °F /  11.6 °C 29.67in /  1004.6hPa ENE 6.0mph /  9.7km/h 11.0mph /  17.7km/h 35% 0.00in /  0mm 814.0 W/m2
10:38 83.3 °F /  28.5 °C 53.6 °F /  12 °C 29.67in /  1004.6hPa Calm   7.0mph /  11.3km/h 36% 0.00in /  0mm 831.0 W/m2
10:43 83.5 °F /  28.6 °C 52.9 °F /  11.6 °C 29.67in /  1004.6hPa NNE 4.9mph /  7.9km/h 9.0mph /  14.5km/h 35% 0.00in /  0mm 849.0 W/m2
10:48 83.7 °F /  28.7 °C 53.1 °F /  11.7 °C 29.67in /  1004.6hPa SE 4.9mph /  7.9km/h 6.0mph /  9.7km/h 35% 0.00in /  0mm 867.0 W/m2
10:53 84.0 °F /  28.9 °C 54.1 °F /  12.3 °C 29.67in /  1004.6hPa NNW 0.9mph /  1.4km/h 7.0mph /  11.3km/h 36% 0.00in /  0mm 877.0 W/m2
10:59 84.6 °F /  29.2 °C 53.1 °F /  11.7 °C 29.66in /  1004.3hPa NE 6.0mph /  9.7km/h 15.0mph /  24.1km/h 34% 0.00in /  0mm 933.0 W/m2
11:04 84.4 °F /  29.1 °C 52.2 °F /  11.2 °C 29.66in /  1004.3hPa NE 4.0mph /  6.4km/h 6.0mph /  9.7km/h 33% 0.00in /  0mm 900.0 W/m2
11:09 84.4 °F /  29.1 °C 51.3 °F /  10.7 °C 29.66in /  1004.3hPa SSW 0.9mph /  1.4km/h 7.0mph /  11.3km/h 32% 0.00in /  0mm 921.0 W/m2
11:14 84.7 °F /  29.3 °C 51.6 °F /  10.9 °C 29.66in /  1004.3hPa East 6.9mph /  11.1km/h 11.0mph /  17.7km/h 32% 0.00in /  0mm 954.0 W/m2
11:19 84.9 °F /  29.4 °C 51.8 °F /  11 °C 29.66in /  1004.3hPa ENE 2.0mph /  3.2km/h 4.0mph /  6.4km/h 32% 0.00in /  0mm 981.0 W/m2
11:25 85.5 °F /  29.7 °C 52.2 °F /  11.2 °C 29.66in /  1004.3hPa ENE 6.9mph /  11.1km/h 12.0mph /  19.3km/h 32% 0.00in /  0mm 981.0 W/m2
11:30 85.5 °F /  29.7 °C 52.2 °F /  11.2 °C 29.65in /  1003.9hPa SE 6.0mph /  9.7km/h 10.0mph /  16.1km/h 32% 0.00in /  0mm 1011.0 W/m2
11:35 85.8 °F /  29.9 °C 52.5 °F /  11.4 °C 29.66in /  1004.3hPa ENE 4.9mph /  7.9km/h 12.0mph /  19.3km/h 32% 0.00in /  0mm 1027.0 W/m2
11:40 86.0 °F /  30 °C 51.8 °F /  11 °C 29.65in /  1003.9hPa Calm   11.0mph /  17.7km/h 31% 0.00in /  0mm 1027.0 W/m2
11:45 86.4 °F /  30.2 °C 52.2 °F /  11.2 °C 29.65in /  1003.9hPa SE 10.1mph /  16.3km/h 13.0mph /  20.9km/h 31% 0.00in /  0mm 997.0 W/m2
11:50 86.7 °F /  30.4 °C 51.6 °F /  10.9 °C 29.65in /  1003.9hPa South 4.0mph /  6.4km/h 9.0mph /  14.5km/h 30% 0.00in /  0mm 990.0 W/m2
11:55 87.1 °F /  30.6 °C 51.8 °F /  11 °C 29.65in /  1003.9hPa ENE 11.0mph /  17.7km/h 16.0mph /  25.7km/h 30% 0.00in /  0mm 1051.0 W/m2
12:01 87.3 °F /  30.7 °C 50.2 °F /  10.1 °C 29.65in /  1003.9hPa ENE 0.9mph /  1.4km/h 10.0mph /  16.1km/h 28% 0.00in /  0mm 1044.0 W/m2
12:06 87.6 °F /  30.9 °C 50.5 °F /  10.3 °C 29.65in /  1003.9hPa NE 6.0mph /  9.7km/h 7.0mph /  11.3km/h 28% 0.00in /  0mm 1051.0 W/m2
12:11 87.6 °F /  30.9 °C 50.5 °F /  10.3 °C 29.65in /  1003.9hPa NE 4.0mph /  6.4km/h 7.0mph /  11.3km/h 28% 0.00in /  0mm 1113.0 W/m2
12:17 87.6 °F /  30.9 °C 50.5 °F /  10.3 °C 29.64in /  1003.6hPa Calm   6.0mph /  9.7km/h 28% 0.00in /  0mm 169.0 W/m2
12:22 87.6 °F /  30.9 °C 49.5 °F /  9.7 °C 29.64in /  1003.6hPa SE 12.1mph /  19.5km/h 12.1mph /  19.5km/h 27% 0.00in /  0mm 1167.0 W/m2
12:27 88.0 °F /  31.1 °C 49.8 °F /  9.9 °C 29.64in /  1003.6hPa East 8.9mph /  14.3km/h 10.0mph /  16.1km/h 27% 0.00in /  0mm 1238.0 W/m2
12:32 88.2 °F /  31.2 °C 50.0 °F /  10 °C 29.63in /  1003.3hPa SE 4.0mph /  6.4km/h 8.0mph /  12.9km/h 27% 0.00in /  0mm 1287.0 W/m2
12:37 88.0 °F /  31.1 °C 46.6 °F /  8.1 °C 29.63in /  1003.3hPa ENE 0.9mph /  1.4km/h 12.0mph /  19.3km/h 24% 0.00in /  0mm 1123.0 W/m2
12:42 88.0 °F /  31.1 °C 49.8 °F /  9.9 °C 29.63in /  1003.3hPa SE 2.0mph /  3.2km/h 9.0mph /  14.5km/h 27% 0.00in /  0mm 1132.0 W/m2
12:47 88.3 °F /  31.3 °C 51.1 °F /  10.6 °C 29.63in /  1003.3hPa East 4.9mph /  7.9km/h 6.0mph /  9.7km/h 28% 0.00in /  0mm 1211.0 W/m2
12:52 88.5 °F /  31.4 °C 49.3 °F /  9.6 °C 29.62in /  1002.9hPa ENE 2.9mph /  4.7km/h 8.0mph /  12.9km/h 26% 0.00in /  0mm 624.0 W/m2
12:57 88.3 °F /  31.3 °C 49.1 °F /  9.5 °C 29.62in /  1002.9hPa ESE 2.9mph /  4.7km/h 14.0mph /  22.5km/h 26% 0.00in /  0mm 211.0 W/m2
13:03 87.4 °F /  30.8 °C 48.4 °F /  9.1 °C 29.62in /  1002.9hPa SSE 2.9mph /  4.7km/h 9.0mph /  14.5km/h 26% 0.00in /  0mm 174.0 W/m2
13:09 86.7 °F /  30.4 °C 48.7 °F /  9.3 °C 29.62in /  1002.9hPa SE 4.9mph /  7.9km/h 6.0mph /  9.7km/h 27% 0.00in /  0mm 178.0 W/m2
13:14 87.1 °F /  30.6 °C 48.0 °F /  8.9 °C 29.62in /  1002.9hPa ENE 6.9mph /  11.1km/h 9.0mph /  14.5km/h 26% 0.00in /  0mm 1111.0 W/m2
13:19 88.0 °F /  31.1 °C 46.6 °F /  8.1 °C 29.62in /  1002.9hPa SSE 4.0mph /  6.4km/h 6.0mph /  9.7km/h 24% 0.00in /  0mm 1132.0 W/m2
13:24 88.7 °F /  31.5 °C 48.4 °F /  9.1 °C 29.61in /  1002.6hPa ENE 2.9mph /  4.7km/h 11.0mph /  17.7km/h 25% 0.00in /  0mm 253.0 W/m2
13:29 89.1 °F /  31.7 °C 47.7 °F /  8.7 °C 29.61in /  1002.6hPa ESE 2.9mph /  4.7km/h 12.0mph /  19.3km/h 24% 0.00in /  0mm 1160.0 W/m2
13:34 89.4 °F /  31.9 °C 46.8 °F /  8.2 °C 29.61in /  1002.6hPa NNE 2.9mph /  4.7km/h 8.0mph /  12.9km/h 23% 0.00in /  0mm 1165.0 W/m2
13:39 89.8 °F /  32.1 °C 45.9 °F /  7.7 °C 29.61in /  1002.6hPa SE 2.0mph /  3.2km/h 5.0mph /  8km/h 22% 0.00in /  0mm 1188.0 W/m2
13:44 90.7 °F /  32.6 °C 47.8 °F /  8.8 °C 29.60in /  1002.3hPa SW 0.9mph /  1.4km/h 8.0mph /  12.9km/h 23% 0.00in /  0mm 1187.0 W/m2
13:49 90.5 °F /  32.5 °C 46.4 °F /  8 °C 29.60in /  1002.3hPa SSE 2.9mph /  4.7km/h 8.0mph /  12.9km/h 22% 0.00in /  0mm 223.0 W/m2
13:54 90.1 °F /  32.3 °C 46.2 °F /  7.9 °C 29.60in /  1002.3hPa NE 4.0mph /  6.4km/h 9.0mph /  14.5km/h 22% 0.00in /  0mm 211.0 W/m2
13:59 89.8 °F /  32.1 °C 45.9 °F /  7.7 °C 29.60in /  1002.3hPa Calm   5.0mph /  8km/h 22% 0.00in /  0mm 1079.0 W/m2
14:05 90.0 °F /  32.2 °C 46.0 °F /  7.8 °C 29.59in /  1001.9hPa NNE 2.9mph /  4.7km/h 8.0mph /  12.9km/h 22% 0.00in /  0mm 1116.0 W/m2
14:10 90.0 °F /  32.2 °C 44.8 °F /  7.1 °C 29.59in /  1001.9hPa NNW 2.9mph /  4.7km/h 7.0mph /  11.3km/h 21% 0.00in /  0mm 179.0 W/m2
14:15 89.2 °F /  31.8 °C 45.5 °F /  7.5 °C 29.59in /  1001.9hPa SSE 2.9mph /  4.7km/h 8.0mph /  12.9km/h 22% 0.00in /  0mm 190.0 W/m2
14:20 88.7 °F /  31.5 °C 45.0 °F /  7.2 °C 29.59in /  1001.9hPa SE 6.0mph /  9.7km/h 8.0mph /  12.9km/h 22% 0.00in /  0mm 202.0 W/m2
14:25 88.7 °F /  31.5 °C 45.0 °F /  7.2 °C 29.59in /  1001.9hPa SE 10.1mph /  16.3km/h 14.0mph /  22.5km/h 22% 0.00in /  0mm 1099.0 W/m2
14:30 89.2 °F /  31.8 °C 45.5 °F /  7.5 °C 29.59in /  1001.9hPa ESE 4.9mph /  7.9km/h 10.0mph /  16.1km/h 22% 0.00in /  0mm 1065.0 W/m2
14:35 90.0 °F /  32.2 °C 46.0 °F /  7.8 °C 29.58in /  1001.6hPa Calm   9.0mph /  14.5km/h 22% 0.00in /  0mm 1030.0 W/m2
14:40 90.7 °F /  32.6 °C 45.3 °F /  7.4 °C 29.58in /  1001.6hPa SE 2.0mph /  3.2km/h 5.0mph /  8km/h 21% 0.00in /  0mm 1058.0 W/m2
14:46 91.0 °F /  32.8 °C 45.7 °F /  7.6 °C 29.58in /  1001.6hPa SE 0.9mph /  1.4km/h 11.0mph /  17.7km/h 21% 0.00in /  0mm 1081.0 W/m2
14:51 90.5 °F /  32.5 °C 43.9 °F /  6.6 °C 29.58in /  1001.6hPa SE 2.9mph /  4.7km/h 13.0mph /  20.9km/h 20% 0.00in /  0mm 199.0 W/m2
14:56 89.8 °F /  32.1 °C 45.9 °F /  7.7 °C 29.57in /  1001.2hPa SE 4.9mph /  7.9km/h 14.0mph /  22.5km/h 22% 0.00in /  0mm 209.0 W/m2
15:01 89.1 °F /  31.7 °C 45.3 °F /  7.4 °C 29.57in /  1001.2hPa East 8.1mph /  13km/h 9.0mph /  14.5km/h 22% 0.00in /  0mm 229.0 W/m2
15:06 88.9 °F /  31.6 °C 45.1 °F /  7.3 °C 29.57in /  1001.2hPa Calm   14.0mph /  22.5km/h 22% 0.00in /  0mm 1097.0 W/m2
15:11 89.2 °F /  31.8 °C 44.2 °F /  6.8 °C 29.57in /  1001.2hPa ENE 6.0mph /  9.7km/h 11.0mph /  17.7km/h 21% 0.00in /  0mm 422.0 W/m2
15:16 89.4 °F /  31.9 °C 44.4 °F /  6.9 °C 29.56in /  1000.9hPa SE 2.0mph /  3.2km/h 12.0mph /  19.3km/h 21% 0.00in /  0mm 1056.0 W/m2
15:21 89.8 °F /  32.1 °C 44.6 °F /  7 °C 29.56in /  1000.9hPa ENE 4.9mph /  7.9km/h 10.0mph /  16.1km/h 21% 0.00in /  0mm 264.0 W/m2
15:26 89.8 °F /  32.1 °C 44.6 °F /  7 °C 29.55in /  1000.6hPa ENE 0.9mph /  1.4km/h 6.0mph /  9.7km/h 21% 0.00in /  0mm 1025.0 W/m2
15:31 90.3 °F /  32.4 °C 45.1 °F /  7.3 °C 29.55in /  1000.6hPa SE 6.0mph /  9.7km/h 12.0mph /  19.3km/h 21% 0.00in /  0mm 942.0 W/m2
15:36 91.0 °F /  32.8 °C 43.0 °F /  6.1 °C 29.55in /  1000.6hPa SSW 6.0mph /  9.7km/h 10.0mph /  16.1km/h 19% 0.00in /  0mm 907.0 W/m2
15:41 91.8 °F /  33.2 °C 43.7 °F /  6.5 °C 29.55in /  1000.6hPa South 2.9mph /  4.7km/h 10.0mph /  16.1km/h 19% 0.00in /  0mm 905.0 W/m2
15:46 91.9 °F /  33.3 °C 43.7 °F /  6.5 °C 29.54in /  1000.2hPa SE 6.0mph /  9.7km/h 10.0mph /  16.1km/h 19% 0.00in /  0mm 155.0 W/m2
15:52 91.0 °F /  32.8 °C 41.7 °F /  5.4 °C 29.54in /  1000.2hPa SSE 6.0mph /  9.7km/h 7.0mph /  11.3km/h 18% 0.00in /  0mm 158.0 W/m2
15:57 90.3 °F /  32.4 °C 42.4 °F /  5.8 °C 29.54in /  1000.2hPa ESE 4.0mph /  6.4km/h 4.0mph /  6.4km/h 19% 0.00in /  0mm 267.0 W/m2
16:02 90.7 °F /  32.6 °C 42.8 °F /  6 °C 29.53in /  999.9hPa Calm   2.0mph /  3.2km/h 19% 0.00in /  0mm 701.0 W/m2
16:07 90.9 °F /  32.7 °C 41.5 °F /  5.3 °C 29.53in /  999.9hPa SE 6.0mph /  9.7km/h 10.0mph /  16.1km/h 18% 0.00in /  0mm 132.0 W/m2
16:12 90.3 °F /  32.4 °C 39.6 °F /  4.2 °C 29.53in /  999.9hPa SSE 4.0mph /  6.4km/h 6.0mph /  9.7km/h 17% 0.00in /  0mm 113.0 W/m2
16:17 89.8 °F /  32.1 °C 39.2 °F /  4 °C 29.53in /  999.9hPa Calm   10.0mph /  16.1km/h 17% 0.00in /  0mm 104.0 W/m2
16:22 89.4 °F /  31.9 °C 40.3 °F /  4.6 °C 29.53in /  999.9hPa SW 4.0mph /  6.4km/h 7.0mph /  11.3km/h 18% 0.00in /  0mm 714.0 W/m2
16:27 90.0 °F /  32.2 °C 40.8 °F /  4.9 °C 29.52in /  999.5hPa WSW 0.9mph /  1.4km/h 4.0mph /  6.4km/h 18% 0.00in /  0mm 700.0 W/m2
16:32 90.3 °F /  32.4 °C 42.4 °F /  5.8 °C 29.52in /  999.5hPa South 2.9mph /  4.7km/h 8.0mph /  12.9km/h 19% 0.00in /  0mm 682.0 W/m2
16:37 91.2 °F /  32.9 °C 41.7 °F /  5.4 °C 29.52in /  999.5hPa SE 6.9mph /  11.1km/h 16.0mph /  25.7km/h 18% 0.00in /  0mm 680.0 W/m2
16:43 91.4 °F /  33 °C 38.8 °F /  3.8 °C 29.52in /  999.5hPa ESE 8.1mph /  13km/h 13.0mph /  20.9km/h 16% 0.00in /  0mm 638.0 W/m2
16:48 91.6 °F /  33.1 °C 40.6 °F /  4.8 °C 29.52in /  999.5hPa SE 10.1mph /  16.3km/h 14.0mph /  22.5km/h 17% 0.00in /  0mm 601.0 W/m2
16:53 91.8 °F /  33.2 °C 40.8 °F /  4.9 °C 29.52in /  999.5hPa SSE 4.0mph /  6.4km/h 8.0mph /  12.9km/h 17% 0.00in /  0mm 594.0 W/m2
16:58 92.1 °F /  33.4 °C 41.0 °F /  5 °C 29.52in /  999.5hPa SSW 4.0mph /  6.4km/h 6.0mph /  9.7km/h 17% 0.00in /  0mm 568.0 W/m2
17:03 92.5 °F /  33.6 °C 41.4 °F /  5.2 °C 29.52in /  999.5hPa SE 2.0mph /  3.2km/h 7.0mph /  11.3km/h 17% 0.00in /  0mm 543.0 W/m2
17:08 92.5 °F /  33.6 °C 41.4 °F /  5.2 °C 29.52in /  999.5hPa SE 6.9mph /  11.1km/h 12.0mph /  19.3km/h 17% 0.00in /  0mm 533.0 W/m2
17:13 92.7 °F /  33.7 °C 41.5 °F /  5.3 °C 29.52in /  999.5hPa ESE 8.1mph /  13km/h 11.0mph /  17.7km/h 17% 0.00in /  0mm 512.0 W/m2
17:18 92.5 °F /  33.6 °C 42.8 °F /  6 °C 29.52in /  999.5hPa SSW 2.0mph /  3.2km/h 12.0mph /  19.3km/h 18% 0.00in /  0mm 480.0 W/m2
17:23 92.1 °F /  33.4 °C 41.0 °F /  5 °C 29.52in /  999.5hPa SSE 4.0mph /  6.4km/h 7.0mph /  11.3km/h 17% 0.00in /  0mm 448.0 W/m2
17:29 92.1 °F /  33.4 °C 41.0 °F /  5 °C 29.52in /  999.5hPa SSE 2.9mph /  4.7km/h 8.0mph /  12.9km/h 17% 0.00in /  0mm 422.0 W/m2
17:34 92.3 °F /  33.5 °C 39.6 °F /  4.2 °C 29.52in /  999.5hPa SSW 4.0mph /  6.4km/h 7.0mph /  11.3km/h 16% 0.00in /  0mm 404.0 W/m2
17:39 92.3 °F /  33.5 °C 41.2 °F /  5.1 °C 29.52in /  999.5hPa South 2.0mph /  3.2km/h 7.0mph /  11.3km/h 17% 0.00in /  0mm 387.0 W/m2
17:44 92.1 °F /  33.4 °C 41.0 °F /  5 °C 29.52in /  999.5hPa South 2.9mph /  4.7km/h 8.0mph /  12.9km/h 17% 0.00in /  0mm 369.0 W/m2
17:49 92.1 °F /  33.4 °C 41.0 °F /  5 °C 29.51in /  999.2hPa Calm   11.0mph /  17.7km/h 17% 0.00in /  0mm 339.0 W/m2
17:54 91.8 °F /  33.2 °C 40.8 °F /  4.9 °C 29.52in /  999.5hPa South 2.0mph /  3.2km/h 5.0mph /  8km/h 17% 0.00in /  0mm 47.0 W/m2
17:59 90.7 °F /  32.6 °C 41.4 °F /  5.2 °C 29.52in /  999.5hPa Calm   5.0mph /  8km/h 18% 0.00in /  0mm 49.0 W/m2
18:04 89.6 °F /  32 °C 40.5 °F /  4.7 °C 29.52in /  999.5hPa SE 4.9mph /  7.9km/h 10.0mph /  16.1km/h 18% 0.00in /  0mm 49.0 W/m2
18:09 88.7 °F /  31.5 °C 39.7 °F /  4.3 °C 29.52in /  999.5hPa ESE 4.9mph /  7.9km/h 11.0mph /  17.7km/h 18% 0.00in /  0mm 60.0 W/m2
18:15 88.0 °F /  31.1 °C 39.2 °F /  4 °C 29.52in /  999.5hPa South 2.9mph /  4.7km/h 10.0mph /  16.1km/h 18% 0.00in /  0mm 62.0 W/m2
18:20 87.6 °F /  30.9 °C 40.3 °F /  4.6 °C 29.52in /  999.5hPa South 2.0mph /  3.2km/h 10.0mph /  16.1km/h 19% 0.00in /  0mm 229.0 W/m2
18:25 87.8 °F /  31 °C 40.5 °F /  4.7 °C 29.52in /  999.5hPa SSW 8.1mph /  13km/h 11.0mph /  17.7km/h 19% 0.00in /  0mm 206.0 W/m2
18:30 88.2 °F /  31.2 °C 40.6 °F /  4.8 °C 29.52in /  999.5hPa SE 6.0mph /  9.7km/h 10.0mph /  16.1km/h 19% 0.00in /  0mm 181.0 W/m2
18:35 88.5 °F /  31.4 °C 39.6 °F /  4.2 °C 29.52in /  999.5hPa SE 6.0mph /  9.7km/h 8.0mph /  12.9km/h 18% 0.00in /  0mm 153.0 W/m2
18:40 88.5 °F /  31.4 °C 39.6 °F /  4.2 °C 29.52in /  999.5hPa South 0.9mph /  1.4km/h 8.0mph /  12.9km/h 18% 0.00in /  0mm 128.0 W/m2
18:45 88.7 °F /  31.5 °C 39.7 °F /  4.3 °C 29.52in /  999.5hPa ESE 4.0mph /  6.4km/h 7.0mph /  11.3km/h 18% 0.00in /  0mm 44.0 W/m2
18:50 88.3 °F /  31.3 °C 39.4 °F /  4.1 °C 29.52in /  999.5hPa SSE 4.0mph /  6.4km/h 6.0mph /  9.7km/h 18% 0.00in /  0mm 53.0 W/m2
18:55 88.2 °F /  31.2 °C 39.4 °F /  4.1 °C 29.52in /  999.5hPa SSE 2.9mph /  4.7km/h 7.0mph /  11.3km/h 18% 0.00in /  0mm 56.0 W/m2
19:01 87.8 °F /  31 °C 39.0 °F /  3.9 °C 29.52in /  999.5hPa SSE 6.9mph /  11.1km/h 7.0mph /  11.3km/h 18% 0.00in /  0mm 16.0 W/m2
19:06 87.4 °F /  30.8 °C 40.1 °F /  4.5 °C 29.53in /  999.9hPa Calm   3.0mph /  4.8km/h 19% 0.00in /  0mm 12.0 W/m2
19:11 87.3 °F /  30.7 °C 39.9 °F /  4.4 °C 29.53in /  999.9hPa Calm   2.0mph /  3.2km/h 19% 0.00in /  0mm 11.0 W/m2
19:16 86.7 °F /  30.4 °C 39.6 °F /  4.2 °C 29.53in /  999.9hPa South 4.9mph /  7.9km/h 6.0mph /  9.7km/h 19% 0.00in /  0mm 7.0 W/m2
19:21 86.2 °F /  30.1 °C 40.5 °F /  4.7 °C 29.53in /  999.9hPa Calm   6.0mph /  9.7km/h 20% 0.00in /  0mm 5.0 W/m2
19:26 85.6 °F /  29.8 °C 39.9 °F /  4.4 °C 29.53in /  999.9hPa South 0.9mph /  1.4km/h 5.0mph /  8km/h 20% 0.00in /  0mm 0.0 W/m2
19:31 85.3 °F /  29.6 °C 39.7 °F /  4.3 °C 29.53in /  999.9hPa SSE 6.0mph /  9.7km/h 6.0mph /  9.7km/h 20% 0.00in /  0mm 0.0 W/m2
19:36 84.7 °F /  29.3 °C 39.2 °F /  4 °C 29.54in /  1000.2hPa SE 2.9mph /  4.7km/h 8.0mph /  12.9km/h 20% 0.00in /  0mm 0.0 W/m2
19:41 84.6 °F /  29.2 °C 39.0 °F /  3.9 °C 29.54in /  1000.2hPa SE 6.0mph /  9.7km/h 9.0mph /  14.5km/h 20% 0.00in /  0mm 0.0 W/m2
19:46 84.2 °F /  29 °C 40.1 °F /  4.5 °C 29.54in /  1000.2hPa SSE 4.9mph /  7.9km/h 9.0mph /  14.5km/h 21% 0.00in /  0mm 0.0 W/m2
19:52 84.0 °F /  28.9 °C 39.9 °F /  4.4 °C 29.54in /  1000.2hPa SE 4.9mph /  7.9km/h 7.0mph /  11.3km/h 21% 0.00in /  0mm 0.0 W/m2
19:57 83.7 °F /  28.7 °C 39.6 °F /  4.2 °C 29.54in /  1000.2hPa ESE 6.0mph /  9.7km/h 8.0mph /  12.9km/h 21% 0.00in /  0mm 0.0 W/m2
20:02 83.5 °F /  28.6 °C 40.6 °F /  4.8 °C 29.54in /  1000.2hPa SSE 8.1mph /  13km/h 8.1mph /  13km/h 22% 0.00in /  0mm 0.0 W/m2
20:07 83.3 °F /  28.5 °C 40.5 °F /  4.7 °C 29.55in /  1000.6hPa SSW 0.9mph /  1.4km/h 7.0mph /  11.3km/h 22% 0.00in /  0mm 0.0 W/m2
20:12 83.1 °F /  28.4 °C 40.3 °F /  4.6 °C 29.55in /  1000.6hPa SSE 4.9mph /  7.9km/h 10.0mph /  16.1km/h 22% 0.00in /  0mm 0.0 W/m2
20:17 82.9 °F /  28.3 °C 41.4 °F /  5.2 °C 29.55in /  1000.6hPa SE 2.0mph /  3.2km/h 8.0mph /  12.9km/h 23% 0.00in /  0mm 0.0 W/m2
20:22 82.9 °F /  28.3 °C 41.4 °F /  5.2 °C 29.55in /  1000.6hPa SSE 4.0mph /  6.4km/h 8.0mph /  12.9km/h 23% 0.00in /  0mm 0.0 W/m2
20:27 82.8 °F /  28.2 °C 41.2 °F /  5.1 °C 29.56in /  1000.9hPa ESE 4.0mph /  6.4km/h 7.0mph /  11.3km/h 23% 0.00in /  0mm 0.0 W/m2
20:32 82.8 °F /  28.2 °C 41.2 °F /  5.1 °C 29.55in /  1000.6hPa SE 2.0mph /  3.2km/h 5.0mph /  8km/h 23% 0.00in /  0mm 0.0 W/m2
20:38 82.6 °F /  28.1 °C 41.0 °F /  5 °C 29.56in /  1000.9hPa SE 2.9mph /  4.7km/h 7.0mph /  11.3km/h 23% 0.00in /  0mm 0.0 W/m2
20:43 82.2 °F /  27.9 °C 40.8 °F /  4.9 °C 29.56in /  1000.9hPa SE 4.0mph /  6.4km/h 8.0mph /  12.9km/h 23% 0.00in /  0mm 0.0 W/m2
20:48 82.2 °F /  27.9 °C 40.8 °F /  4.9 °C 29.56in /  1000.9hPa SE 4.9mph /  7.9km/h 9.0mph /  14.5km/h 23% 0.00in /  0mm 0.0 W/m2
20:53 82.0 °F /  27.8 °C 40.6 °F /  4.8 °C 29.56in /  1000.9hPa SE 2.9mph /  4.7km/h 5.0mph /  8km/h 23% 0.00in /  0mm 0.0 W/m2
20:58 81.9 °F /  27.7 °C 40.5 °F /  4.7 °C 29.57in /  1001.2hPa ESE 4.9mph /  7.9km/h 7.0mph /  11.3km/h 23% 0.00in /  0mm 0.0 W/m2
21:03 81.7 °F /  27.6 °C 41.4 °F /  5.2 °C 29.57in /  1001.2hPa SE 2.9mph /  4.7km/h 6.0mph /  9.7km/h 24% 0.00in /  0mm 0.0 W/m2
21:08 81.3 °F /  27.4 °C 41.0 °F /  5 °C 29.57in /  1001.2hPa ESE 0.9mph /  1.4km/h 4.0mph /  6.4km/h 24% 0.00in /  0mm 0.0 W/m2
21:13 81.3 °F /  27.4 °C 41.0 °F /  5 °C 29.57in /  1001.2hPa SE 2.9mph /  4.7km/h 4.0mph /  6.4km/h 24% 0.00in /  0mm 0.0 W/m2
21:18 81.0 °F /  27.2 °C 40.8 °F /  4.9 °C 29.57in /  1001.2hPa East 0.9mph /  1.4km/h 4.0mph /  6.4km/h 24% 0.00in /  0mm 0.0 W/m2
21:23 80.8 °F /  27.1 °C 40.6 °F /  4.8 °C 29.57in /  1001.2hPa SE 0.9mph /  1.4km/h 3.0mph /  4.8km/h 24% 0.00in /  0mm 0.0 W/m2
21:28 80.4 °F /  26.9 °C 40.3 °F /  4.6 °C 29.57in /  1001.2hPa SE 2.9mph /  4.7km/h 6.0mph /  9.7km/h 24% 0.00in /  0mm 0.0 W/m2
21:34 80.2 °F /  26.8 °C 41.2 °F /  5.1 °C 29.58in /  1001.6hPa East 2.0mph /  3.2km/h 3.0mph /  4.8km/h 25% 0.00in /  0mm 0.0 W/m2
21:39 80.2 °F /  26.8 °C 41.2 °F /  5.1 °C 29.58in /  1001.6hPa SSE 2.0mph /  3.2km/h 4.0mph /  6.4km/h 25% 0.00in /  0mm 0.0 W/m2
21:45 80.1 °F /  26.7 °C 41.0 °F /  5 °C 29.58in /  1001.6hPa SE 4.0mph /  6.4km/h 6.0mph /  9.7km/h 25% 0.00in /  0mm 0.0 W/m2
21:50 79.9 °F /  26.6 °C 41.0 °F /  5 °C 29.58in /  1001.6hPa SE 2.0mph /  3.2km/h 6.0mph /  9.7km/h 25% 0.00in /  0mm 0.0 W/m2
21:55 79.7 °F /  26.5 °C 40.8 °F /  4.9 °C 29.59in /  1001.9hPa ESE 0.9mph /  1.4km/h 4.0mph /  6.4km/h 25% 0.00in /  0mm 0.0 W/m2
22:00 79.5 °F /  26.4 °C 40.6 °F /  4.8 °C 29.59in /  1001.9hPa ESE 0.9mph /  1.4km/h 3.0mph /  4.8km/h 25% 0.00in /  0mm 0.0 W/m2
22:05 79.5 °F /  26.4 °C 40.6 °F /  4.8 °C 29.59in /  1001.9hPa ESE 2.0mph /  3.2km/h 3.0mph /  4.8km/h 25% 0.00in /  0mm 0.0 W/m2
22:10 79.3 °F /  26.3 °C 40.5 °F /  4.7 °C 29.59in /  1001.9hPa SE 2.9mph /  4.7km/h 3.0mph /  4.8km/h 25% 0.00in /  0mm 0.0 W/m2
22:15 79.2 °F /  26.2 °C 40.3 °F /  4.6 °C 29.59in /  1001.9hPa ESE 0.9mph /  1.4km/h 4.0mph /  6.4km/h 25% 0.00in /  0mm 0.0 W/m2
22:20 79.2 °F /  26.2 °C 40.3 °F /  4.6 °C 29.59in /  1001.9hPa Calm   2.0mph /  3.2km/h 25% 0.00in /  0mm 0.0 W/m2
22:26 79.3 °F /  26.3 °C 40.5 °F /  4.7 °C 29.59in /  1001.9hPa Calm   1.0mph /  1.6km/h 25% 0.00in /  0mm 0.0 W/m2
22:31 79.3 °F /  26.3 °C 40.5 °F /  4.7 °C 29.59in /  1001.9hPa Calm   3.0mph /  4.8km/h 25% 0.00in /  0mm 0.0 W/m2
22:36 79.3 °F /  26.3 °C 40.5 °F /  4.7 °C 29.59in /  1001.9hPa Calm   1.0mph /  1.6km/h 25% 0.00in /  0mm 0.0 W/m2
22:41 79.3 °F /  26.3 °C 39.4 °F /  4.1 °C 29.59in /  1001.9hPa ESE 2.0mph /  3.2km/h 2.0mph /  3.2km/h 24% 0.00in /  0mm 0.0 W/m2
22:46 79.3 °F /  26.3 °C 39.4 °F /  4.1 °C 29.59in /  1001.9hPa NE 0.9mph /  1.4km/h 3.0mph /  4.8km/h 24% 0.00in /  0mm 0.0 W/m2
22:51 79.3 °F /  26.3 °C 39.4 °F /  4.1 °C 29.59in /  1001.9hPa Calm     24% 0.00in /  0mm 0.0 W/m2
22:56 79.3 °F /  26.3 °C 40.5 °F /  4.7 °C 29.59in /  1001.9hPa Calm   1.0mph /  1.6km/h 25% 0.00in /  0mm 0.0 W/m2
23:01 79.3 °F /  26.3 °C 41.5 °F /  5.3 °C 29.59in /  1001.9hPa Calm   1.0mph /  1.6km/h 26% 0.00in /  0mm 0.0 W/m2
23:06 79.2 °F /  26.2 °C 42.3 °F /  5.7 °C 29.59in /  1001.9hPa West 2.9mph /  4.7km/h 3.0mph /  4.8km/h 27% 0.00in /  0mm 0.0 W/m2
23:11 78.6 °F /  25.9 °C 41.9 °F /  5.5 °C 29.59in /  1001.9hPa West 2.9mph /  4.7km/h 3.0mph /  4.8km/h 27% 0.00in /  0mm 0.0 W/m2
23:16 78.3 °F /  25.7 °C 42.4 °F /  5.8 °C 29.59in /  1001.9hPa WSW 2.9mph /  4.7km/h 4.0mph /  6.4km/h 28% 0.00in /  0mm 0.0 W/m2
23:21 77.9 °F /  25.5 °C 42.3 °F /  5.7 °C 29.59in /  1001.9hPa SW 2.0mph /  3.2km/h 3.0mph /  4.8km/h 28% 0.00in /  0mm 0.0 W/m2
23:27 77.5 °F /  25.3 °C 41.9 °F /  5.5 °C 29.59in /  1001.9hPa WSW 4.9mph /  7.9km/h 6.0mph /  9.7km/h 28% 0.00in /  0mm 0.0 W/m2
23:32 77.5 °F /  25.3 °C 41.9 °F /  5.5 °C 29.59in /  1001.9hPa WSW 0.9mph /  1.4km/h 4.0mph /  6.4km/h 28% 0.00in /  0mm 0.0 W/m2
23:37 77.5 °F /  25.3 °C 41.9 °F /  5.5 °C 29.59in /  1001.9hPa Calm   1.0mph /  1.6km/h 28% 0.00in /  0mm 0.0 W/m2
23:43 77.4 °F /  25.2 °C 41.7 °F /  5.4 °C 29.59in /  1001.9hPa SW 0.9mph /  1.4km/h 2.0mph /  3.2km/h 28% 0.00in /  0mm 0.0 W/m2
23:48 77.4 °F /  25.2 °C 41.7 °F /  5.4 °C 29.59in /  1001.9hPa Calm   4.0mph /  6.4km/h 28% 0.00in /  0mm 0.0 W/m2
23:53 77.4 °F /  25.2 °C 40.8 °F /  4.9 °C 29.59in /  1001.9hPa SE 0.9mph /  1.4km/h 3.0mph /  4.8km/h 27% 0.00in /  0mm 0.0 W/m2
23:58 77.4 °F /  25.2 °C 40.8 °F /  4.9 °C 29.59in /  1001.9hPa SSE 0.9mph /  1.4km/h 4.0mph /  6.4km/h 27% 0.00in /  0mm 0.0 W/m2
Olympia, Windhoek, Namibia
Compliments of Weather Underground - 3.25 mb